Time;durP1;ratioP1;P1;durP2;ratioP2;P2;SDS_P1;SDS_P2;PMS_P1;PMS_P2;Temp;Humidity;BMP_temperature;BMP_pressure;BME280_temperature;BME280_humidity;BME280_pressure;Samples;Min_cycle;Max_cycle;Signal;HPM_P1;HPM_P2
2022/07/22 00:01:17;;;;;;;0.50;0.50;;;19.20;80.30;;;;;;5050737;28;20067;-63
2022/07/22 00:03:43;;;;;;;0.60;0.60;;;19.20;79.60;;;;;;5051583;28;20036;-63
2022/07/22 00:06:09;;;;;;;1.42;1.05;;;19.20;79.60;;;;;;5054087;28;20367;-63
2022/07/22 00:08:34;;;;;;;1.33;0.75;;;19.20;79.70;;;;;;5050646;28;20099;-62
2022/07/22 00:11:00;;;;;;;0.50;0.43;;;19.20;79.60;;;;;;5049959;28;20033;-63
2022/07/22 00:13:26;;;;;;;0.63;0.50;;;19.20;79.60;;;;;;5039715;28;20376;-62
2022/07/22 00:15:51;;;;;;;0.68;0.60;;;19.20;79.70;;;;;;5055290;28;20056;-62
2022/07/22 00:18:17;;;;;;;0.90;0.80;;;19.20;79.80;;;;;;5050941;28;20045;-62
2022/07/22 00:20:43;;;;;;;0.30;0.30;;;19.20;79.80;;;;;;5053405;28;20033;-62
2022/07/22 00:23:08;;;;;;;0.30;0.30;;;19.20;79.70;;;;;;5051786;28;20487;-62
2022/07/22 00:25:34;;;;;;;0.65;0.50;;;19.20;79.70;;;;;;5034362;28;20488;-62
2022/07/22 00:28:00;;;;;;;0.95;0.70;;;19.20;79.60;;;;;;5041278;28;20068;-62
2022/07/22 00:30:26;;;;;;;1.05;0.68;;;19.20;79.40;;;;;;5036272;28;20668;-62
2022/07/22 00:32:51;;;;;;;0.65;0.65;;;19.30;79.30;;;;;;5052492;28;20033;-63
2022/07/22 00:35:17;;;;;;;0.63;0.63;;;19.30;79.30;;;;;;5053305;28;20109;-62
2022/07/22 00:37:43;;;;;;;0.40;0.40;;;19.30;79.30;;;;;;5056868;28;20561;-63
2022/07/22 00:40:10;;;;;;;0.60;0.60;;;19.30;79.40;;;;;;5053900;28;20449;-62
2022/07/22 00:42:35;;;;;;;0.98;0.90;;;19.30;79.30;;;;;;5074218;28;20127;-63
2022/07/22 00:45:01;;;;;;;1.02;0.60;;;19.30;79.30;;;;;;5050929;28;20029;-63
2022/07/22 00:47:27;;;;;;;1.63;0.73;;;19.30;79.30;;;;;;5056655;28;20033;-62
2022/07/22 00:49:52;;;;;;;0.43;0.40;;;19.40;79.30;;;;;;5057212;28;20041;-63
2022/07/22 00:52:19;;;;;;;1.50;1.00;;;19.40;79.30;;;;;;5052614;28;20041;-63
2022/07/22 00:54:45;;;;;;;0.60;0.60;;;19.40;79.20;;;;;;5042859;28;20029;-63
2022/07/22 00:57:11;;;;;;;2.53;0.90;;;19.40;79.20;;;;;;5046817;28;20032;-62
2022/07/22 00:59:37;;;;;;;1.17;0.90;;;19.40;79.30;;;;;;5055742;28;20029;-62
2022/07/22 01:02:03;;;;;;;0.98;0.80;;;19.40;79.10;;;;;;5048941;28;20045;-62
2022/07/22 01:04:29;;;;;;;2.38;0.50;;;19.40;79.00;;;;;;5050851;28;20045;-63
2022/07/22 01:06:54;;;;;;;0.65;0.65;;;19.40;79.00;;;;;;5050373;28;20134;-63
2022/07/22 01:09:20;;;;;;;1.27;0.77;;;19.40;79.20;;;;;;5051928;28;20036;-62
2022/07/22 01:11:46;;;;;;;1.45;0.98;;;19.40;79.30;;;;;;5051076;28;20059;-62
2022/07/22 01:14:12;;;;;;;0.38;0.32;;;19.30;79.40;;;;;;5050560;28;20021;-62
2022/07/22 01:16:37;;;;;;;1.05;0.95;;;19.30;79.50;;;;;;5050741;28;20041;-62
2022/07/22 01:19:04;;;;;;;0.90;0.80;;;19.30;79.60;;;;;;5051236;28;20044;-63
2022/07/22 01:21:30;;;;;;;3.25;0.63;;;19.30;79.70;;;;;;5038693;28;20403;-62
2022/07/22 01:23:56;;;;;;;0.60;0.40;;;19.30;79.70;;;;;;5041675;28;20514;-62
2022/07/22 01:26:22;;;;;;;1.13;0.70;;;19.30;79.90;;;;;;5048422;28;20037;-62
2022/07/22 01:28:48;;;;;;;0.80;0.80;;;19.40;79.90;;;;;;5051671;28;20063;-62
2022/07/22 01:31:13;;;;;;;1.10;1.00;;;19.30;79.90;;;;;;5051344;28;20083;-62
2022/07/22 01:33:39;;;;;;;1.40;1.10;;;19.40;80.50;;;;;;5045205;28;20040;-62
2022/07/22 01:36:06;;;;;;;0.77;0.73;;;19.40;79.80;;;;;;5043355;28;20029;-63
2022/07/22 01:38:31;;;;;;;0.70;0.65;;;19.30;79.80;;;;;;5045783;28;20460;-62
2022/07/22 01:40:57;;;;;;;0.50;0.50;;;19.40;79.90;;;;;;5039611;28;20088;-62
2022/07/22 01:43:23;;;;;;;0.80;0.80;;;19.30;79.90;;;;;;5048529;28;20056;-62
2022/07/22 01:45:51;;;;;;;2.15;0.93;;;19.30;79.90;;;;;;5050567;28;20077;-62
2022/07/22 01:48:17;;;;;;;0.50;0.50;;;19.30;80.50;;;;;;5050646;28;20036;-62
2022/07/22 01:50:44;;;;;;;0.70;0.60;;;19.30;79.90;;;;;;5050433;28;20045;-62
2022/07/22 01:53:10;;;;;;;1.02;0.88;;;19.30;79.90;;;;;;5047062;28;20036;-67
2022/07/22 01:55:36;;;;;;;1.58;0.70;;;19.30;79.90;;;;;;5043007;28;20056;-67
2022/07/22 01:58:03;;;;;;;0.70;0.60;;;19.30;80.00;;;;;;5049260;28;20071;-69
2022/07/22 02:00:30;;;;;;;2.20;1.02;;;19.30;79.90;;;;;;5042315;28;20146;-68
2022/07/22 02:02:55;;;;;;;0.90;0.80;;;19.30;79.90;;;;;;5050148;28;20017;-68
2022/07/22 02:05:21;;;;;;;3.47;0.80;;;19.30;80.00;;;;;;5044863;28;20176;-68
2022/07/22 02:07:47;;;;;;;0.50;0.50;;;19.40;80.00;;;;;;5046730;28;20059;-68
2022/07/22 02:10:13;;;;;;;0.60;0.40;;;19.30;80.00;;;;;;5049925;28;20044;-68
2022/07/22 02:12:39;;;;;;;1.75;0.50;;;19.30;79.90;;;;;;5037242;28;20041;-69
2022/07/22 02:15:06;;;;;;;1.95;0.70;;;19.40;79.90;;;;;;5050227;28;20110;-69
2022/07/22 02:17:33;;;;;;;1.90;1.42;;;19.40;79.80;;;;;;5049549;28;20472;-69
2022/07/22 02:20:00;;;;;;;0.82;0.75;;;19.40;79.70;;;;;;5050965;28;20115;-68
2022/07/22 02:22:25;;;;;;;1.50;0.60;;;19.40;79.70;;;;;;5052243;28;20487;-68
2022/07/22 02:24:51;;;;;;;0.98;0.75;;;19.30;79.80;;;;;;5053717;28;20047;-63
2022/07/22 02:27:17;;;;;;;1.15;0.70;;;19.30;79.90;;;;;;5052292;28;20419;-63
2022/07/22 02:29:42;;;;;;;1.08;0.77;;;19.30;80.00;;;;;;5055627;28;20040;-63
2022/07/22 02:32:08;;;;;;;5.28;1.17;;;19.30;79.90;;;;;;5049905;28;20037;-64
2022/07/22 02:34:34;;;;;;;0.90;0.90;;;19.30;79.80;;;;;;5054589;28;20028;-63
2022/07/22 02:36:59;;;;;;;3.85;1.30;;;19.30;79.70;;;;;;5050589;28;20033;-63
2022/07/22 02:39:25;;;;;;;1.30;1.00;;;19.30;79.70;;;;;;5057428;28;20055;-63
2022/07/22 02:41:51;;;;;;;1.05;0.98;;;19.30;79.60;;;;;;5056510;28;20013;-63
2022/07/22 02:44:16;;;;;;;3.60;1.10;;;19.30;79.60;;;;;;5051929;28;20120;-69
2022/07/22 02:46:42;;;;;;;1.15;1.05;;;19.30;79.60;;;;;;5059983;28;20119;-63
2022/07/22 02:49:08;;;;;;;4.00;1.42;;;19.30;79.50;;;;;;5056421;28;20037;-63
2022/07/22 02:51:33;;;;;;;2.00;0.80;;;19.30;79.40;;;;;;5063310;28;20043;-63
2022/07/22 02:53:59;;;;;;;0.80;0.70;;;19.30;79.50;;;;;;5056055;28;20040;-63
2022/07/22 02:56:25;;;;;;;1.08;0.80;;;19.30;79.50;;;;;;5063321;28;20371;-63
2022/07/22 02:58:52;;;;;;;2.15;1.48;;;19.30;79.50;;;;;;5060491;28;20421;-63
2022/07/22 03:01:19;;;;;;;1.27;0.88;;;19.30;79.50;;;;;;5050570;28;20068;-63
2022/07/22 03:03:45;;;;;;;3.22;1.25;;;19.30;79.40;;;;;;5049595;28;20040;-63
2022/07/22 03:06:11;;;;;;;1.77;1.05;;;19.30;79.30;;;;;;5063660;28;20480;-63
2022/07/22 03:08:38;;;;;;;1.48;0.85;;;19.30;79.30;;;;;;5045650;28;20040;-63
2022/07/22 03:11:04;;;;;;;2.03;0.90;;;19.30;79.30;;;;;;5050357;28;20081;-64
2022/07/22 03:13:29;;;;;;;1.15;0.85;;;19.30;79.40;;;;;;5046313;28;20037;-63
2022/07/22 03:15:55;;;;;;;1.25;1.10;;;19.30;79.40;;;;;;5041658;28;20380;-63
2022/07/22 03:18:21;;;;;;;1.98;1.27;;;19.30;79.40;;;;;;5046369;28;20029;-63
2022/07/22 03:20:47;;;;;;;1.30;0.95;;;19.30;79.50;;;;;;5050200;28;20115;-63
2022/07/22 03:23:13;;;;;;;1.20;0.95;;;19.30;79.40;;;;;;5053397;28;20033;-69
2022/07/22 03:25:39;;;;;;;0.73;0.73;;;19.30;79.30;;;;;;5047461;28;20050;-68
2022/07/22 03:28:05;;;;;;;1.20;0.90;;;19.30;79.20;;;;;;5058149;28;20033;-68
2022/07/22 03:30:31;;;;;;;1.45;1.05;;;19.30;79.10;;;;;;5050125;28;20032;-63
2022/07/22 03:32:57;;;;;;;1.50;0.80;;;19.30;79.20;;;;;;5059743;28;20101;-64
2022/07/22 03:35:23;;;;;;;1.00;0.90;;;19.30;79.10;;;;;;5058368;28;20391;-63
2022/07/22 03:37:49;;;;;;;1.02;0.90;;;19.30;79.10;;;;;;5061639;28;20590;-63
2022/07/22 03:40:15;;;;;;;1.80;1.17;;;19.30;79.10;;;;;;5063515;28;20028;-68
2022/07/22 03:42:41;;;;;;;1.98;1.13;;;19.30;79.00;;;;;;5063324;28;20471;-63
2022/07/22 03:45:08;;;;;;;2.67;0.82;;;19.30;79.00;;;;;;5064861;28;20136;-63
2022/07/22 03:47:33;;;;;;;0.70;0.55;;;19.30;79.00;;;;;;5063497;28;20025;-63
2022/07/22 03:49:59;;;;;;;1.27;0.70;;;19.30;79.70;;;;;;5064001;28;20529;-68
2022/07/22 03:52:25;;;;;;;1.25;1.08;;;19.30;79.10;;;;;;5064936;28;20464;-64
2022/07/22 03:54:51;;;;;;;1.95;0.98;;;19.30;79.10;;;;;;5059983;28;20043;-63
2022/07/22 03:57:17;;;;;;;2.22;1.00;;;19.30;79.70;;;;;;5062998;28;20115;-68
2022/07/22 03:59:42;;;;;;;1.27;1.10;;;19.30;79.10;;;;;;5064223;28;20029;-68
2022/07/22 04:02:08;;;;;;;2.13;1.15;;;19.30;79.30;;;;;;5053541;28;20536;-68
2022/07/22 04:04:34;;;;;;;1.42;1.20;;;19.30;79.40;;;;;;5068658;28;20052;-69
2022/07/22 04:06:59;;;;;;;1.33;1.13;;;19.30;79.30;;;;;;5049318;28;20048;-68
2022/07/22 04:09:25;;;;;;;0.80;0.80;;;19.30;79.40;;;;;;5045652;28;20115;-68
2022/07/22 04:11:53;;;;;;;4.47;1.52;;;19.30;79.40;;;;;;5055639;28;20048;-68
2022/07/22 04:14:19;;;;;;;3.53;1.00;;;19.30;79.50;;;;;;5055475;28;20500;-69
2022/07/22 04:16:45;;;;;;;0.98;0.80;;;19.30;79.50;;;;;;5053354;28;20039;-68
2022/07/22 04:19:11;;;;;;;0.80;0.75;;;19.20;79.40;;;;;;5056764;28;20029;-69
2022/07/22 04:21:37;;;;;;;0.93;0.63;;;19.20;79.30;;;;;;5053875;28;20037;-68
2022/07/22 04:24:04;;;;;;;4.00;1.10;;;19.20;79.30;;;;;;5052930;28;20040;-68
2022/07/22 04:26:29;;;;;;;1.30;0.73;;;19.20;79.20;;;;;;5052803;28;20033;-63
2022/07/22 04:28:55;;;;;;;1.98;1.13;;;19.10;79.10;;;;;;5052608;28;20033;-63
2022/07/22 04:31:21;;;;;;;0.52;0.50;;;19.10;79.10;;;;;;5055447;28;20036;-64
2022/07/22 04:33:54;;;;;;;1.05;0.75;;;19.10;79.10;;;;;;5051885;28;20108;-63
2022/07/22 04:36:19;;;;;;;0.40;0.40;;;19.10;79.00;;;;;;5056535;28;20654;-63
2022/07/22 04:38:45;;;;;;;1.80;1.00;;;19.20;79.00;;;;;;5044898;28;20033;-63
2022/07/22 04:41:11;;;;;;;1.75;1.05;;;19.20;78.80;;;;;;5052338;28;20484;-69
2022/07/22 04:43:36;;;;;;;0.70;0.60;;;19.20;78.70;;;;;;5059877;28;20029;-68
2022/07/22 04:46:03;;;;;;;0.95;0.77;;;19.10;79.30;;;;;;5068958;28;20423;-69
2022/07/22 04:48:28;;;;;;;0.75;0.70;;;19.10;78.80;;;;;;5051498;28;20041;-69
2022/07/22 04:51:01;;;;;;;1.67;1.15;;;19.10;78.70;;;;;;5051948;28;20032;-68
2022/07/22 04:53:28;;;;;;;12.48;1.30;;;19.10;78.70;;;;;;5064222;28;20036;-69
2022/07/22 04:55:54;;;;;;;1.27;0.70;;;19.00;78.70;;;;;;5050432;28;20024;-69
2022/07/22 04:58:19;;;;;;;0.57;0.57;;;19.00;78.70;;;;;;5051810;28;20032;-63
2022/07/22 05:00:46;;;;;;;0.75;0.57;;;19.00;78.70;;;;;;5049298;28;20091;-63
2022/07/22 05:03:12;;;;;;;0.55;0.52;;;19.00;78.70;;;;;;5052467;28;20456;-63
2022/07/22 05:05:38;;;;;;;0.70;0.70;;;19.00;78.80;;;;;;5051519;28;20052;-62
2022/07/22 05:08:05;;;;;;;0.43;0.43;;;19.00;78.80;;;;;;5050879;28;20614;-63
2022/07/22 05:10:32;;;;;;;0.63;0.50;;;19.10;78.70;;;;;;5051475;28;20021;-63
2022/07/22 05:12:58;;;;;;;1.13;0.77;;;19.10;79.20;;;;;;5051308;28;20478;-62
2022/07/22 05:15:24;;;;;;;0.70;0.68;;;19.10;78.50;;;;;;5049198;28;20033;-63
2022/07/22 05:17:49;;;;;;;2.05;0.82;;;19.10;78.30;;;;;;5051710;28;20643;-63
2022/07/22 05:20:16;;;;;;;1.17;0.73;;;19.10;78.20;;;;;;5051656;28;20359;-63
2022/07/22 05:22:42;;;;;;;0.57;0.57;;;19.10;78.10;;;;;;5051555;28;20033;-63
2022/07/22 05:25:08;;;;;;;3.67;0.80;;;19.10;78.00;;;;;;5050598;28;20025;-63
2022/07/22 05:27:34;;;;;;;0.73;0.52;;;19.10;78.10;;;;;;5045367;28;20025;-62
2022/07/22 05:29:59;;;;;;;2.33;0.90;;;19.20;78.20;;;;;;5050055;28;20491;-63
2022/07/22 05:32:25;;;;;;;2.08;0.65;;;19.20;78.00;;;;;;5046938;28;20387;-63
2022/07/22 05:34:51;;;;;;;1.20;0.63;;;19.20;77.90;;;;;;5044561;28;20037;-63
2022/07/22 05:37:17;;;;;;;1.40;0.68;;;19.10;78.00;;;;;;5042690;28;20107;-62
2022/07/22 05:39:43;;;;;;;0.73;0.52;;;19.20;78.10;;;;;;5050866;28;20037;-63
2022/07/22 05:42:09;;;;;;;1.70;0.55;;;19.20;78.10;;;;;;5051273;28;20032;-64
2022/07/22 05:44:34;;;;;;;0.63;0.47;;;19.20;78.10;;;;;;5052313;28;20029;-63
2022/07/22 05:47:00;;;;;;;1.40;0.70;;;19.30;78.00;;;;;;5040339;28;20041;-62
2022/07/22 05:49:26;;;;;;;0.82;0.82;;;19.30;77.90;;;;;;5041304;28;20028;-63
2022/07/22 05:51:53;;;;;;;3.00;0.52;;;19.40;77.90;;;;;;5045085;28;20095;-63
2022/07/22 05:54:19;;;;;;;1.52;0.52;;;19.40;77.90;;;;;;5043349;28;20507;-63
2022/07/22 05:56:45;;;;;;;0.90;0.82;;;19.40;78.10;;;;;;5041005;28;20423;-63
2022/07/22 05:59:10;;;;;;;0.52;0.52;;;19.50;78.00;;;;;;5045102;28;20032;-62
2022/07/22 06:01:36;;;;;;;0.73;0.73;;;19.50;77.90;;;;;;5060255;28;20083;-63
2022/07/22 06:04:02;;;;;;;0.90;0.80;;;19.50;77.80;;;;;;5049910;28;20090;-63
2022/07/22 06:06:27;;;;;;;2.47;1.23;;;19.50;77.80;;;;;;5041037;28;20576;-63
2022/07/22 06:08:53;;;;;;;0.55;0.47;;;19.60;77.90;;;;;;5048606;28;20040;-63
2022/07/22 06:11:19;;;;;;;0.47;0.47;;;19.50;77.90;;;;;;5053211;28;20033;-63
2022/07/22 06:13:44;;;;;;;1.25;1.10;;;19.50;78.10;;;;;;5050596;28;20087;-63
2022/07/22 06:16:10;;;;;;;0.85;0.40;;;19.40;77.60;;;;;;5043217;28;20380;-68
2022/07/22 06:18:36;;;;;;;0.65;0.50;;;19.40;77.30;;;;;;5063714;28;20107;-68
2022/07/22 06:21:02;;;;;;;0.65;0.63;;;19.40;77.40;;;;;;5062900;28;20096;-68
2022/07/22 06:23:27;;;;;;;0.63;0.60;;;19.40;77.40;;;;;;5059617;28;20407;-68
2022/07/22 06:25:53;;;;;;;0.35;0.35;;;19.50;77.30;;;;;;5045598;28;20112;-68
2022/07/22 06:28:19;;;;;;;11.57;1.30;;;19.50;77.20;;;;;;5051987;28;20028;-69
2022/07/22 06:30:49;;;;;;;0.40;0.40;;;19.60;77.00;;;;;;5048294;28;20120;-68
2022/07/22 06:33:15;;;;;;;1.83;0.68;;;19.60;76.80;;;;;;5052902;28;20041;-69
2022/07/22 06:35:41;;;;;;;0.93;0.80;;;19.60;76.30;;;;;;5058480;28;20033;-69
2022/07/22 06:38:07;;;;;;;2.25;0.60;;;19.60;76.10;;;;;;5057605;28;20149;-68
2022/07/22 06:40:34;;;;;;;1.13;0.50;;;19.60;76.40;;;;;;5069604;28;20043;-68
2022/07/22 06:43:00;;;;;;;0.80;0.50;;;19.70;76.50;;;;;;5057064;28;20048;-69
2022/07/22 06:45:27;;;;;;;1.50;0.68;;;19.70;76.40;;;;;;5050501;28;20537;-68
2022/07/22 06:47:52;;;;;;;1.80;0.60;;;19.80;76.20;;;;;;5049445;28;20127;-68
2022/07/22 06:50:18;;;;;;;0.52;0.52;;;19.80;76.10;;;;;;5050512;28;20119;-68
2022/07/22 06:52:48;;;;;;;0.45;0.40;;;19.80;76.30;;;;;;5048061;28;20032;-68
2022/07/22 06:55:15;;;;;;;0.82;0.52;;;19.80;76.40;;;;;;5056106;28;20098;-67
2022/07/22 06:57:40;;;;;;;1.00;0.80;;;19.80;76.40;;;;;;5048452;28;20036;-68
2022/07/22 07:00:08;;;;;;;0.65;0.50;;;19.90;76.30;;;;;;5049861;28;20017;-68
2022/07/22 07:02:34;;;;;;;1.02;0.82;;;20.00;76.30;;;;;;5056190;28;20071;-68
2022/07/22 07:05:00;;;;;;;0.60;0.50;;;20.00;76.20;;;;;;5048542;28;20492;-67
2022/07/22 07:07:25;;;;;;;0.60;0.60;;;20.10;76.30;;;;;;5050735;28;20021;-67
2022/07/22 07:09:51;;;;;;;0.65;0.63;;;20.20;76.30;;;;;;5049667;28;20120;-67
2022/07/22 07:12:17;;;;;;;0.63;0.63;;;20.30;76.20;;;;;;5046605;28;20619;-68
2022/07/22 07:14:42;;;;;;;0.75;0.60;;;20.30;76.20;;;;;;5049725;28;20029;-70
2022/07/22 07:17:08;;;;;;;0.40;0.40;;;20.30;76.10;;;;;;5052162;28;20025;-69
2022/07/22 07:19:37;;;;;;;1.63;0.77;;;20.40;76.00;;;;;;5048787;28;20056;-69
2022/07/22 07:22:03;;;;;;;1.25;0.77;;;20.40;75.80;;;;;;5048884;28;20115;-69
2022/07/22 07:24:28;;;;;;;0.73;0.55;;;20.40;75.80;;;;;;5059673;28;20112;-69
2022/07/22 07:26:54;;;;;;;2.40;0.60;;;20.50;75.70;;;;;;5064019;28;20026;-70
2022/07/22 07:29:20;;;;;;;0.60;0.60;;;20.50;75.60;;;;;;5056533;28;20475;-69
2022/07/22 07:31:46;;;;;;;0.77;0.60;;;20.50;75.40;;;;;;5050150;28;20426;-69
2022/07/22 07:34:11;;;;;;;2.38;1.02;;;20.50;75.50;;;;;;5055217;28;20480;-69
2022/07/22 07:36:37;;;;;;;1.17;0.60;;;20.50;75.50;;;;;;5041714;28;20388;-69
2022/07/22 07:39:02;;;;;;;0.32;0.32;;;20.50;75.50;;;;;;5049219;28;20098;-65
2022/07/22 07:41:28;;;;;;;0.43;0.43;;;20.60;75.40;;;;;;5056999;28;20115;-65
2022/07/22 07:43:54;;;;;;;1.08;0.50;;;20.50;75.40;;;;;;5044258;28;20491;-65
2022/07/22 07:46:19;;;;;;;1.02;0.73;;;20.60;75.30;;;;;;5045118;28;20068;-65
2022/07/22 07:48:46;;;;;;;0.93;0.50;;;20.60;75.20;;;;;;5040805;28;20137;-66
2022/07/22 07:51:12;;;;;;;0.98;0.60;;;20.50;74.80;;;;;;5042583;28;20756;-65
2022/07/22 07:53:38;;;;;;;1.40;0.65;;;20.40;74.80;;;;;;5047194;28;20052;-66
2022/07/22 07:56:04;;;;;;;0.47;0.47;;;20.40;74.90;;;;;;5041648;28;20536;-64
2022/07/22 07:58:29;;;;;;;0.95;0.50;;;20.40;74.70;;;;;;5040381;28;20031;-69
2022/07/22 08:00:55;;;;;;;0.73;0.52;;;20.40;74.60;;;;;;5045410;28;20377;-65
2022/07/22 08:03:21;;;;;;;0.60;0.60;;;20.40;74.60;;;;;;5050380;28;20519;-65
2022/07/22 08:05:47;;;;;;;0.38;0.38;;;20.40;74.40;;;;;;5051001;28;20084;-66
2022/07/22 08:08:12;;;;;;;1.08;0.63;;;20.40;74.50;;;;;;5045973;28;20024;-66
2022/07/22 08:10:38;;;;;;;1.17;0.75;;;20.40;74.60;;;;;;5047015;28;20063;-66
2022/07/22 08:13:04;;;;;;;0.60;0.43;;;20.50;74.70;;;;;;5062702;28;20033;-67
2022/07/22 08:15:30;;;;;;;1.42;0.95;;;20.50;74.60;;;;;;5043404;28;20037;-65
2022/07/22 08:17:57;;;;;;;1.17;0.63;;;20.60;74.60;;;;;;5044092;28;20590;-65
2022/07/22 08:20:24;;;;;;;0.98;0.40;;;20.60;74.50;;;;;;5038574;28;20113;-65
2022/07/22 08:22:50;;;;;;;2.33;0.88;;;20.60;74.30;;;;;;5044434;28;20140;-65
2022/07/22 08:25:16;;;;;;;1.13;0.70;;;20.60;74.20;;;;;;5047144;28;20094;-65
2022/07/22 08:27:42;;;;;;;0.73;0.60;;;20.60;74.10;;;;;;5053040;28;20036;-65
2022/07/22 08:30:08;;;;;;;0.57;0.57;;;20.60;74.10;;;;;;5044619;28;20033;-65
2022/07/22 08:32:34;;;;;;;2.35;0.47;;;20.70;74.00;;;;;;5041646;28;20212;-65
2022/07/22 08:35:00;;;;;;;0.98;0.55;;;20.70;73.80;;;;;;5042781;28;20029;-65
2022/07/22 08:37:26;;;;;;;0.80;0.77;;;20.80;73.60;;;;;;5048715;28;20115;-65
2022/07/22 08:39:53;;;;;;;1.23;0.85;;;20.80;73.60;;;;;;5054249;28;20044;-65
2022/07/22 08:42:24;;;;;;;2.00;0.70;;;20.90;73.80;;;;;;5044981;28;20078;-66
2022/07/22 08:44:50;;;;;;;1.03;0.90;;;21.10;73.80;;;;;;5041832;28;20020;-66
2022/07/22 08:47:20;;;;;;;2.30;0.73;;;21.20;73.60;;;;;;5041139;28;20037;-66
2022/07/22 08:49:46;;;;;;;2.00;0.63;;;21.30;73.30;;;;;;5041679;28;20040;-65
2022/07/22 08:52:12;;;;;;;0.88;0.85;;;21.40;73.10;;;;;;5045432;28;20392;-65
2022/07/22 08:54:38;;;;;;;1.80;0.98;;;21.60;72.90;;;;;;5043968;28;21043;-65
2022/07/22 08:57:03;;;;;;;6.55;1.48;;;21.70;72.60;;;;;;5040226;28;20029;-65
2022/07/22 08:59:29;;;;;;;4.05;0.73;;;21.70;72.10;;;;;;5042831;28;20033;-65
2022/07/22 09:02:05;;;;;;;1.38;0.70;;;21.90;71.80;;;;;;5045779;28;20029;-65
2022/07/22 09:04:31;;;;;;;1.60;0.70;;;22.00;71.70;;;;;;5041937;28;20053;-65
2022/07/22 09:06:57;;;;;;;0.60;0.60;;;22.10;71.50;;;;;;5052347;28;20120;-66
2022/07/22 09:09:34;;;;;;;0.68;0.60;;;22.20;71.50;;;;;;5044756;28;20048;-65
2022/07/22 09:12:07;;;;;;;0.90;0.60;;;22.20;70.90;;;;;;5055534;28;20693;-66
2022/07/22 09:14:50;;;;;;;0.52;0.52;;;22.10;70.30;;;;;;5050618;28;20040;-65
2022/07/22 09:17:42;;;;;;;0.50;0.50;;;21.90;70.60;;;;;;5052344;28;20075;-65
2022/07/22 09:20:18;;;;;;;0.57;0.40;;;21.70;70.60;;;;;;5033588;28;20040;-65
2022/07/22 09:22:47;;;;;;;6.05;0.82;;;21.70;70.80;;;;;;5049827;28;20079;-65
2022/07/22 09:25:32;;;;;;;0.40;0.40;;;21.60;70.70;;;;;;5047686;28;20036;-65
2022/07/22 09:28:07;;;;;;;0.63;0.63;;;21.60;70.50;;;;;;5047507;28;20700;-68
2022/07/22 09:30:45;;;;;;;0.57;0.50;;;21.60;70.30;;;;;;5043082;28;20419;-65
2022/07/22 09:33:11;;;;;;;1.02;0.77;;;21.60;70.10;;;;;;5045886;28;20412;-65
2022/07/22 09:35:39;;;;;;;1.58;0.47;;;21.60;69.80;;;;;;5037887;28;20284;-69
2022/07/22 09:38:06;;;;;;;0.75;0.70;;;21.60;69.30;;;;;;5042515;28;20106;-70
2022/07/22 09:40:35;;;;;;;0.80;0.80;;;21.70;69.20;;;;;;5033233;28;20399;-68
2022/07/22 09:43:04;;;;;;;1.77;0.70;;;21.70;69.00;;;;;;5040656;28;20017;-69
2022/07/22 09:45:31;;;;;;;0.52;0.30;;;21.80;68.40;;;;;;5055043;28;20055;-68
2022/07/22 09:47:59;;;;;;;0.77;0.65;;;21.80;67.70;;;;;;5038755;28;20045;-65
2022/07/22 09:50:32;;;;;;;0.70;0.70;;;21.80;67.80;;;;;;5055810;28;20211;-64
2022/07/22 09:53:00;;;;;;;0.50;0.50;;;21.90;67.50;;;;;;5036818;28;20037;-65
2022/07/22 09:55:28;;;;;;;2.65;1.00;;;22.10;67.80;;;;;;5032849;28;20107;-65
2022/07/22 09:57:56;;;;;;;2.33;0.57;;;22.30;67.60;;;;;;5038651;28;20487;-65
2022/07/22 10:00:27;;;;;;;0.77;0.77;;;22.50;67.30;;;;;;5041274;28;20025;-65
2022/07/22 10:02:58;;;;;;;2.25;0.45;;;22.70;67.10;;;;;;5047732;28;20489;-65
2022/07/22 10:05:37;;;;;;;1.15;0.70;;;22.80;66.40;;;;;;5058829;28;20033;-65
2022/07/22 10:08:04;;;;;;;1.48;0.95;;;22.80;65.80;;;;;;5053555;28;20025;-65
2022/07/22 10:10:32;;;;;;;0.63;0.45;;;22.80;65.70;;;;;;5047271;28;20037;-65
2022/07/22 10:13:00;;;;;;;0.50;0.50;;;22.80;65.90;;;;;;5043039;28;20037;-65
2022/07/22 10:15:27;;;;;;;1.58;0.68;;;22.90;66.20;;;;;;5044210;28;20392;-65
2022/07/22 10:17:56;;;;;;;0.50;0.40;;;22.90;65.80;;;;;;5045965;28;20593;-65
2022/07/22 10:20:27;;;;;;;0.50;0.50;;;22.90;65.60;;;;;;5042370;28;20021;-65
2022/07/22 10:22:54;;;;;;;0.93;0.90;;;22.90;65.70;;;;;;5036568;28;20099;-65
2022/07/22 10:25:23;;;;;;;1.58;1.13;;;23.00;64.80;;;;;;5053815;28;20025;-65
2022/07/22 10:27:50;;;;;;;0.82;0.70;;;23.00;65.00;;;;;;5053204;28;20033;-65
2022/07/22 10:30:38;;;;;;;0.80;0.65;;;23.00;65.20;;;;;;5053117;28;20467;-65
2022/07/22 10:33:05;;;;;;;0.60;0.55;;;23.10;64.80;;;;;;5046153;28;20087;-65
2022/07/22 10:35:31;;;;;;;2.00;0.68;;;23.10;64.60;;;;;;5046938;28;20028;-65
2022/07/22 10:38:00;;;;;;;0.98;0.60;;;23.20;64.50;;;;;;5049982;28;20107;-65
2022/07/22 10:40:46;;;;;;;3.80;0.88;;;23.20;63.60;;;;;;5046416;28;20104;-65
2022/07/22 10:43:12;;;;;;;0.55;0.50;;;23.20;63.70;;;;;;5046372;28;20042;-65
2022/07/22 10:45:53;;;;;;;0.60;0.57;;;23.30;63.40;;;;;;5041533;28;20037;-65
2022/07/22 10:48:41;;;;;;;0.55;0.52;;;23.40;63.60;;;;;;5041004;28;20024;-64
2022/07/22 10:51:18;;;;;;;0.60;0.60;;;23.40;63.10;;;;;;5038357;28;20036;-65
2022/07/22 10:53:43;;;;;;;0.63;0.63;;;23.50;62.80;;;;;;5050924;28;20059;-64
2022/07/22 10:56:31;;;;;;;2.85;0.55;;;23.50;62.60;;;;;;5051922;28;20029;-65
2022/07/22 10:59:16;;;;;;;0.60;0.60;;;23.60;62.30;;;;;;5045600;28;20111;-65
2022/07/22 11:01:47;;;;;;;0.50;0.50;;;23.50;58.90;;;;;;5046230;28;20009;-65
2022/07/22 11:04:24;;;;;;;0.68;0.68;;;23.50;60.40;;;;;;5040484;28;20125;-68
2022/07/22 11:06:52;;;;;;;0.40;0.40;;;23.50;61.10;;;;;;5057295;28;20028;-68
2022/07/22 11:09:23;;;;;;;1.90;0.90;;;23.70;61.30;;;;;;5045652;28;20036;-68
2022/07/22 11:11:54;;;;;;;0.55;0.50;;;23.90;61.20;;;;;;5047427;28;20025;-68
2022/07/22 11:14:27;;;;;;;0.80;0.52;;;24.00;60.10;;;;;;5046157;28;20029;-67
2022/07/22 11:16:55;;;;;;;0.52;0.52;;;23.90;59.90;;;;;;5045258;28;20207;-68
2022/07/22 11:19:29;;;;;;;0.50;0.50;;;23.90;60.00;;;;;;5042841;28;20473;-67
2022/07/22 11:22:09;;;;;;;0.50;0.50;;;23.90;60.30;;;;;;5036739;28;20029;-67
2022/07/22 11:24:36;;;;;;;1.80;0.60;;;23.90;60.00;;;;;;5041607;28;20017;-68
2022/07/22 11:27:08;;;;;;;0.47;0.47;;;23.90;60.00;;;;;;5044951;28;20043;-68
2022/07/22 11:29:35;;;;;;;;;;;24.00;60.10;;;;;;5044004;28;20056;-68
2022/07/22 11:32:04;;;;;;;0.57;0.57;;;24.10;60.50;;;;;;5045665;28;19971;-68
2022/07/22 11:34:30;;;;;;;0.80;0.80;;;24.10;59.80;;;;;;5049158;28;20032;-67
2022/07/22 11:36:57;;;;;;;0.75;0.68;;;24.10;59.80;;;;;;5048691;28;20024;-67
2022/07/22 11:39:26;;;;;;;1.50;0.93;;;24.10;59.50;;;;;;5046577;28;20830;-68
2022/07/22 11:41:53;;;;;;;0.52;0.52;;;24.10;59.70;;;;;;5044187;28;20036;-68
2022/07/22 11:44:24;;;;;;;0.73;0.73;;;24.20;59.00;;;;;;5046688;28;20032;-68
2022/07/22 11:46:51;;;;;;;0.50;0.50;;;24.40;59.00;;;;;;5047317;28;20025;-68
2022/07/22 11:49:20;;;;;;;0.52;0.52;;;24.50;58.50;;;;;;5036951;28;20103;-68
2022/07/22 11:51:46;;;;;;;1.88;0.80;;;24.70;58.60;;;;;;5049305;28;20044;-67
2022/07/22 11:54:12;;;;;;;0.93;0.80;;;24.90;58.40;;;;;;5036922;28;20033;-68
2022/07/22 11:56:38;;;;;;;4.03;0.77;;;25.00;58.00;;;;;;5054108;28;20047;-68
2022/07/22 11:59:05;;;;;;;0.32;0.32;;;25.00;58.00;;;;;;5054616;28;20499;-68
2022/07/22 12:01:33;;;;;;;1.33;0.50;;;24.80;58.40;;;;;;5053805;28;20028;-68
2022/07/22 12:04:06;;;;;;;0.95;0.60;;;24.70;58.50;;;;;;5048504;28;20032;-68
2022/07/22 12:06:36;;;;;;;1.25;0.50;;;24.50;58.40;;;;;;5049350;28;20495;-68
2022/07/22 12:09:19;;;;;;;0.55;0.52;;;24.40;58.30;;;;;;5040887;28;20437;-68
2022/07/22 12:11:50;;;;;;;0.60;0.60;;;24.30;58.50;;;;;;5038837;28;20025;-68
2022/07/22 12:14:20;;;;;;;0.50;0.50;;;24.20;58.10;;;;;;5035307;28;20044;-68
2022/07/22 12:17:05;;;;;;;0.73;0.60;;;24.10;58.00;;;;;;5060134;28;20036;-68
2022/07/22 12:19:33;;;;;;;1.33;0.85;;;24.10;57.90;;;;;;5051088;28;20483;-68
2022/07/22 12:22:02;;;;;;;0.47;0.47;;;24.20;58.10;;;;;;5055483;28;20665;-68
2022/07/22 12:24:33;;;;;;;0.55;0.55;;;24.20;57.60;;;;;;5048595;28;20036;-68
2022/07/22 12:27:20;;;;;;;0.53;0.53;;;24.20;57.70;;;;;;5045004;28;20041;-68
2022/07/22 12:29:48;;;;;;;1.83;0.70;;;24.20;57.50;;;;;;5040591;28;20312;-68
2022/07/22 12:32:26;;;;;;;7.03;0.82;;;24.30;57.80;;;;;;5042116;28;20097;-68
2022/07/22 12:35:01;;;;;;;0.60;0.60;;;24.40;57.60;;;;;;5056166;28;20032;-68
2022/07/22 12:37:32;;;;;;;0.50;0.50;;;24.50;57.00;;;;;;5045963;28;20522;-68
2022/07/22 12:40:11;;;;;;;0.50;0.50;;;24.60;57.00;;;;;;5042141;28;20082;-68
2022/07/22 12:42:47;;;;;;;0.50;0.50;;;24.90;57.00;;;;;;5061267;28;20494;-68
2022/07/22 12:45:17;;;;;;;1.42;0.60;;;25.40;56.10;;;;;;5046249;28;20311;-68
2022/07/22 12:47:51;;;;;;;0.60;0.60;;;25.80;55.30;;;;;;5063935;28;20038;-68
2022/07/22 12:50:20;;;;;;;0.40;0.40;;;26.10;54.70;;;;;;5043029;28;20022;-68